createdAt,value
2022-11-06T00:00:45.258Z,24.67
2022-11-06T00:03:12.144Z,23.48
2022-11-06T00:06:01.312Z,25.80
2022-11-06T00:08:33.342Z,23.67
2022-11-06T00:11:00.405Z,24.17
2022-11-06T00:13:27.839Z,23.73
2022-11-06T00:15:54.579Z,25.98
2022-11-06T00:18:21.134Z,22.77
2022-11-06T00:20:47.889Z,25.02
2022-11-06T00:23:14.391Z,25.20
2022-11-06T00:25:41.970Z,23.63
2022-11-06T00:28:08.813Z,24.50
2022-11-06T00:30:35.375Z,23.10
2022-11-06T00:33:01.914Z,23.77
2022-11-06T00:35:28.988Z,22.88
2022-11-06T00:37:56.204Z,20.85
2022-11-06T00:40:23.134Z,23.85
2022-11-06T00:42:54.322Z,24.33
2022-11-06T00:45:21.011Z,25.57
2022-11-06T00:47:47.503Z,27.55
2022-11-06T00:50:14.215Z,27.35
2022-11-06T00:52:40.763Z,27.40
2022-11-06T00:57:25.087Z,31.60
2022-11-06T00:59:51.604Z,29.10
2022-11-06T01:02:19.565Z,27.33
2022-11-06T01:04:47.119Z,26.98
2022-11-06T01:07:13.667Z,27.30
2022-11-06T01:09:40.199Z,26.90
2022-11-06T01:12:13.208Z,26.30
2022-11-06T01:14:41.740Z,24.02
2022-11-06T01:17:08.345Z,24.23
2022-11-06T01:19:34.959Z,26.23
2022-11-06T01:22:01.569Z,23.73
2022-11-06T01:24:29.331Z,24.48
2022-11-06T01:27:24.918Z,24.08
2022-11-06T01:29:43.340Z,22.30
2022-11-06T01:32:09.963Z,23.95
2022-11-06T01:34:36.648Z,22.85
2022-11-06T01:37:03.477Z,22.17
2022-11-06T01:39:30.166Z,23.40
2022-11-06T01:41:56.662Z,26.92
2022-11-06T01:44:35.680Z,23.95
2022-11-06T01:47:06.610Z,25.05
2022-11-06T01:49:37.898Z,25.58
2022-11-06T01:52:10.071Z,25.10
2022-11-06T01:57:05.681Z,23.50
2022-11-06T01:59:35.875Z,24.75
2022-11-06T02:02:02.762Z,28.70
2022-11-06T02:04:34.424Z,25.98
2022-11-06T02:07:01.206Z,26.55
2022-11-06T02:09:30.403Z,25.30
2022-11-06T02:12:22.214Z,23.10
2022-11-06T02:15:08.648Z,25.60
2022-11-06T02:17:52.118Z,24.85
2022-11-06T02:20:44.891Z,28.42
2022-11-06T02:23:44.167Z,25.02
2022-11-06T02:26:34.158Z,25.13
2022-11-06T02:29:07.820Z,26.05
2022-11-06T02:31:36.731Z,26.48
2022-11-06T02:34:10.067Z,24.83
2022-11-06T02:36:56.450Z,27.77
2022-11-06T02:39:27.198Z,24.73
2022-11-06T02:41:57.752Z,25.52
2022-11-06T02:44:28.755Z,24.00
2022-11-06T02:47:06.770Z,23.92
2022-11-06T02:50:01.502Z,22.60
2022-11-06T02:52:38.100Z,24.67
2022-11-06T02:55:11.265Z,22.48
2022-11-06T02:57:42.184Z,22.45
2022-11-06T03:00:15.771Z,22.83
2022-11-06T03:02:53.638Z,23.25
2022-11-06T03:05:24.841Z,21.17
2022-11-06T03:07:59.348Z,23.50
2022-11-06T03:10:32.529Z,22.67
2022-11-06T03:13:09.689Z,21.92
2022-11-06T03:15:45.198Z,22.83
2022-11-06T03:18:43.416Z,21.27
2022-11-06T03:21:25.894Z,21.65
2022-11-06T03:23:59.213Z,23.90
2022-11-06T03:26:38.486Z,24.83
2022-11-06T03:29:25.822Z,24.90
2022-11-06T03:32:01.606Z,22.83
2022-11-06T03:34:33.093Z,23.10
2022-11-06T03:37:07.647Z,20.95
2022-11-06T03:39:42.560Z,25.20
2022-11-06T03:42:16.830Z,24.42
2022-11-06T03:44:49.521Z,22.52
2022-11-06T03:47:24.331Z,23.75
2022-11-06T03:49:57.627Z,22.83
2022-11-06T03:52:30.690Z,23.67
2022-11-06T03:55:07.807Z,23.80
2022-11-06T03:57:50.587Z,22.90
2022-11-06T04:00:20.393Z,25.77
2022-11-06T04:02:52.451Z,23.58
2022-11-06T04:08:13.016Z,23.88
2022-11-06T04:11:03.597Z,24.98
2022-11-06T04:13:52.555Z,23.02
2022-11-06T04:16:19.269Z,23.90
2022-11-06T04:18:45.792Z,23.27
2022-11-06T04:21:34.353Z,22.80
2022-11-06T04:24:34.550Z,23.58
2022-11-06T04:27:13.467Z,23.67
2022-11-06T04:30:08.026Z,21.65
2022-11-06T04:32:40.421Z,19.63
2022-11-06T04:35:15.796Z,22.15
2022-11-06T04:38:30.474Z,22.05
2022-11-06T04:41:06.151Z,25.02
2022-11-06T04:43:50.632Z,20.10
2022-11-06T04:46:23.536Z,25.10
2022-11-06T04:48:50.934Z,21.00
2022-11-06T04:51:22.682Z,21.52
2022-11-06T04:53:52.094Z,22.38
2022-11-06T04:56:35.268Z,19.77
2022-11-06T04:59:07.210Z,23.08
2022-11-06T05:01:34.339Z,21.67
2022-11-06T05:04:01.011Z,21.77
2022-11-06T05:06:30.150Z,20.85
2022-11-06T05:08:58.931Z,20.17
2022-11-06T05:11:25.460Z,21.60
2022-11-06T05:13:52.041Z,20.02
2022-11-06T05:16:18.755Z,21.77
2022-11-06T05:18:45.253Z,20.50
2022-11-06T05:21:30.923Z,23.33
2022-11-06T05:23:57.500Z,23.25
2022-11-06T05:26:24.025Z,23.10
2022-11-06T05:28:50.613Z,21.48
2022-11-06T05:31:17.354Z,21.52
2022-11-06T05:33:43.878Z,22.75
2022-11-06T05:36:10.635Z,22.95
2022-11-06T05:38:37.166Z,21.75
2022-11-06T05:41:03.763Z,21.67
2022-11-06T05:43:30.939Z,21.50
2022-11-06T05:45:57.575Z,18.30
2022-11-06T05:48:24.219Z,22.30
2022-11-06T05:50:50.787Z,17.27
2022-11-06T05:53:17.352Z,18.77
2022-11-06T05:55:49.742Z,18.85
2022-11-06T05:58:16.610Z,18.35
2022-11-06T06:00:43.249Z,19.30
2022-11-06T06:03:10.548Z,18.70
2022-11-06T06:05:37.278Z,18.35
2022-11-06T06:08:04.906Z,17.65
2022-11-06T06:10:31.398Z,18.55
2022-11-06T06:12:57.979Z,17.25
2022-11-06T06:15:24.570Z,16.40
2022-11-06T06:17:51.115Z,18.55
2022-11-06T06:20:17.782Z,16.50
2022-11-06T06:22:53.230Z,17.10
2022-11-06T06:25:22.899Z,15.85
2022-11-06T06:27:50.125Z,18.90
2022-11-06T06:30:16.927Z,15.30
2022-11-06T06:32:43.986Z,17.75
2022-11-06T06:35:10.849Z,17.20
2022-11-06T06:37:37.833Z,14.52
2022-11-06T06:40:05.531Z,16.95
2022-11-06T06:42:32.231Z,17.73
2022-11-06T06:44:58.728Z,15.85
2022-11-06T06:47:25.312Z,15.68
2022-11-06T06:49:51.802Z,17.00
2022-11-06T06:52:18.350Z,17.13
2022-11-06T06:54:45.291Z,16.75
2022-11-06T06:57:11.973Z,17.48
2022-11-06T06:59:38.492Z,19.83
2022-11-06T07:02:05.203Z,19.25
2022-11-06T07:04:31.775Z,17.13
2022-11-06T07:06:58.336Z,19.35
2022-11-06T07:09:25.008Z,22.83
2022-11-06T07:11:51.577Z,25.27
2022-11-06T07:14:18.163Z,23.58
2022-11-06T07:16:47.381Z,19.05
2022-11-06T07:19:17.647Z,16.77
2022-11-06T07:21:44.139Z,15.70
2022-11-06T07:26:36.139Z,17.83
2022-11-06T07:29:02.763Z,16.88
2022-11-06T07:31:31.267Z,15.15
2022-11-06T07:33:57.945Z,15.70
2022-11-06T07:36:24.588Z,13.98
2022-11-06T07:38:51.205Z,13.82
2022-11-06T07:41:17.709Z,14.93
2022-11-06T07:43:44.817Z,16.48
2022-11-06T07:46:12.786Z,20.13
2022-11-06T07:48:39.832Z,19.33
2022-11-06T07:51:09.399Z,20.45
2022-11-06T07:53:36.430Z,19.25
2022-11-06T07:56:03.069Z,19.88
2022-11-06T07:58:29.878Z,18.05
2022-11-06T08:00:58.538Z,22.17
2022-11-06T08:03:26.769Z,19.55
2022-11-06T08:05:53.342Z,19.25
2022-11-06T08:08:19.952Z,19.23
2022-11-06T08:10:47.668Z,17.80
2022-11-06T08:13:16.864Z,18.90
2022-11-06T08:15:43.547Z,19.45
2022-11-06T08:18:11.496Z,16.65
2022-11-06T08:20:39.333Z,14.43
2022-11-06T08:23:08.803Z,12.98
2022-11-06T08:25:35.439Z,12.75
2022-11-06T08:28:03.052Z,12.52
2022-11-06T08:30:30.819Z,14.48
2022-11-06T08:33:02.784Z,15.07
2022-11-06T08:35:29.765Z,15.43
2022-11-06T08:37:56.691Z,14.52
2022-11-06T08:40:29.419Z,14.60
2022-11-06T08:43:05.628Z,14.63
2022-11-06T08:45:32.980Z,13.20
2022-11-06T08:48:04.481Z,13.95
2022-11-06T08:50:32.080Z,12.68
2022-11-06T08:55:21.578Z,13.18
2022-11-06T08:57:48.155Z,13.75
2022-11-06T09:00:15.613Z,16.35
2022-11-06T09:02:42.191Z,14.63
2022-11-06T09:05:09.126Z,16.77
2022-11-06T09:07:35.767Z,17.90
2022-11-06T09:10:02.467Z,16.63
2022-11-06T09:12:29.040Z,15.25
2022-11-06T09:14:55.632Z,16.98
2022-11-06T09:17:24.318Z,17.75
2022-11-06T09:19:51.697Z,16.13
2022-11-06T09:22:18.979Z,16.08
2022-11-06T09:25:02.735Z,16.73
2022-11-06T09:27:31.075Z,17.80
2022-11-06T09:29:58.145Z,17.10
2022-11-06T09:32:26.098Z,17.25
2022-11-06T09:34:52.654Z,17.00
2022-11-06T09:37:19.260Z,18.10
2022-11-06T09:39:45.743Z,19.25
2022-11-06T09:42:46.071Z,16.70
2022-11-06T09:45:17.813Z,18.40
2022-11-06T09:47:50.979Z,18.00
2022-11-06T09:50:26.702Z,17.85
2022-11-06T09:53:05.608Z,17.25
2022-11-06T09:55:41.347Z,16.98
2022-11-06T09:58:16.810Z,15.63
2022-11-06T10:00:43.825Z,14.70
2022-11-06T10:03:23.867Z,21.58
2022-11-06T10:05:53.158Z,16.15
2022-11-06T10:08:26.939Z,14.98
2022-11-06T10:11:05.733Z,16.02
2022-11-06T10:14:00.121Z,16.00
2022-11-06T10:16:46.834Z,16.55
2022-11-06T10:19:25.530Z,15.93
2022-11-06T10:22:07.244Z,17.58
2022-11-06T10:24:57.502Z,17.38
2022-11-06T10:27:32.214Z,15.38
2022-11-06T10:30:13.015Z,14.45
2022-11-06T10:32:52.920Z,15.50
2022-11-06T10:35:24.670Z,15.45
2022-11-06T10:37:58.319Z,15.50
2022-11-06T10:42:56.159Z,14.18
2022-11-06T10:45:24.694Z,15.63
2022-11-06T10:48:10.845Z,13.52
2022-11-06T10:51:04.578Z,13.88
2022-11-06T10:53:37.143Z,15.35
2022-11-06T10:56:28.623Z,17.05
2022-11-06T10:58:55.267Z,16.40
2022-11-06T11:01:23.149Z,15.70
2022-11-06T11:03:51.547Z,16.45
2022-11-06T11:06:18.595Z,13.93
2022-11-06T11:08:49.193Z,14.70
2022-11-06T11:11:15.824Z,12.60
2022-11-06T11:13:57.470Z,15.48
2022-11-06T11:16:28.248Z,13.77
2022-11-06T11:18:54.924Z,13.23
2022-11-06T11:21:27.659Z,11.40
2022-11-06T11:24:00.486Z,12.23
2022-11-06T11:26:29.904Z,13.40
2022-11-06T11:29:03.223Z,15.55
2022-11-06T11:31:33.070Z,13.25
2022-11-06T11:34:05.010Z,10.80
2022-11-06T11:36:57.737Z,12.32
2022-11-06T11:39:42.616Z,12.38
2022-11-06T11:42:27.689Z,11.30
2022-11-06T11:45:16.435Z,12.13
2022-11-06T11:47:48.828Z,11.15
2022-11-06T11:50:26.801Z,10.35
2022-11-06T11:53:14.059Z,11.88
2022-11-06T11:55:44.752Z,11.48
2022-11-06T11:58:23.986Z,10.95
2022-11-06T12:00:54.860Z,12.63
2022-11-06T12:05:44.937Z,10.18
2022-11-06T12:08:23.732Z,11.85
2022-11-06T12:10:50.578Z,12.10
2022-11-06T12:13:22.535Z,13.05
2022-11-06T12:16:13.715Z,11.85
2022-11-06T12:18:55.998Z,12.30
2022-11-06T12:21:33.246Z,9.85
2022-11-06T12:24:25.762Z,11.45
2022-11-06T12:29:33.601Z,12.30
2022-11-06T12:32:02.980Z,11.60
2022-11-06T12:34:44.831Z,13.07
2022-11-06T12:37:24.203Z,13.23
2022-11-06T12:40:18.454Z,11.45
2022-11-06T12:43:20.773Z,13.65
2022-11-06T12:46:08.818Z,12.85
2022-11-06T12:48:35.634Z,16.20
2022-11-06T12:51:29.911Z,13.75
2022-11-06T12:54:24.918Z,13.85
2022-11-06T12:57:14.340Z,15.05
2022-11-06T13:00:04.631Z,14.65
2022-11-06T13:04:59.007Z,15.00
2022-11-06T13:07:47.159Z,16.42
2022-11-06T13:10:28.878Z,16.20
2022-11-06T13:13:30.925Z,15.40
2022-11-06T13:16:24.265Z,14.02
2022-11-06T13:19:00.843Z,14.20
2022-11-06T13:21:39.305Z,29.05
2022-11-06T13:24:25.207Z,24.20
2022-11-06T13:27:01.611Z,16.45
2022-11-06T13:29:30.222Z,16.55
2022-11-06T13:32:04.839Z,17.38
2022-11-06T13:34:38.037Z,17.67
2022-11-06T13:39:29.792Z,13.35
2022-11-06T13:41:58.004Z,17.35
2022-11-06T13:44:25.450Z,17.20
2022-11-06T13:46:54.765Z,17.63
2022-11-06T13:49:39.683Z,17.95
2022-11-06T13:52:35.501Z,18.50
2022-11-06T13:55:14.327Z,15.80
2022-11-06T13:58:00.049Z,18.65
2022-11-06T14:00:41.803Z,16.02
2022-11-06T14:03:48.179Z,14.10
2022-11-06T14:08:48.771Z,16.60
2022-11-06T14:11:28.351Z,15.88
2022-11-06T14:14:21.230Z,16.83
2022-11-06T14:17:09.437Z,15.77
2022-11-06T14:19:36.614Z,15.63
2022-11-06T14:22:08.853Z,16.13
2022-11-06T14:24:39.983Z,20.25
2022-11-06T14:27:23.221Z,22.43
2022-11-06T14:30:15.419Z,22.08
2022-11-06T14:32:48.072Z,21.02
2022-11-06T14:35:37.959Z,21.50
2022-11-06T14:38:28.970Z,19.17
2022-11-06T14:40:56.655Z,19.90
2022-11-06T14:43:31.662Z,30.30
2022-11-06T14:46:00.568Z,54.88
2022-11-06T14:48:39.474Z,20.92
2022-11-06T14:53:37.719Z,19.00
2022-11-06T14:56:08.134Z,16.33
2022-11-06T14:58:39.043Z,16.83
2022-11-06T15:01:08.731Z,45.45
2022-11-06T15:03:48.798Z,18.50
2022-11-06T15:06:16.178Z,18.52
2022-11-06T15:08:45.913Z,18.73
2022-11-06T15:13:26.743Z,22.23
2022-11-06T15:16:05.823Z,17.38
2022-11-06T15:18:36.251Z,16.83
2022-11-06T15:21:07.946Z,18.95
2022-11-06T15:24:01.292Z,24.20
2022-11-06T15:26:37.054Z,22.23
2022-11-06T15:29:19.509Z,22.33
2022-11-06T15:31:50.637Z,20.75
2022-11-06T15:34:26.210Z,20.83
2022-11-06T15:39:29.178Z,25.90
2022-11-06T15:41:56.674Z,35.13
2022-11-06T15:44:25.039Z,38.33
2022-11-06T15:46:59.123Z,31.95
2022-11-06T15:49:26.210Z,25.02
2022-11-06T15:52:02.303Z,28.85
2022-11-06T15:54:31.639Z,53.05
2022-11-06T15:57:00.646Z,50.28
2022-11-06T15:59:29.960Z,72.95
2022-11-06T16:01:56.584Z,85.95
2022-11-06T16:04:25.682Z,123.28
2022-11-06T16:06:54.387Z,85.05
2022-11-06T16:09:23.901Z,51.45
2022-11-06T16:11:52.027Z,48.88
2022-11-06T16:14:20.326Z,43.45
2022-11-06T16:16:55.749Z,35.63
2022-11-06T16:19:23.254Z,32.97
2022-11-06T16:21:58.058Z,32.50
2022-11-06T16:24:28.891Z,33.95
2022-11-06T16:26:55.998Z,32.30
2022-11-06T16:29:29.233Z,37.33
2022-11-06T16:32:08.453Z,42.70
2022-11-06T16:34:38.122Z,39.88
2022-11-06T16:37:21.480Z,37.83
2022-11-06T16:39:50.998Z,37.90
2022-11-06T16:42:27.723Z,35.65
2022-11-06T16:45:19.463Z,31.85
2022-11-06T16:48:11.010Z,26.88
2022-11-06T16:50:53.015Z,25.45
2022-11-06T16:53:21.967Z,24.17
2022-11-06T16:56:05.803Z,22.15
2022-11-06T16:58:48.559Z,24.58
2022-11-06T17:01:20.415Z,23.60
2022-11-06T17:03:54.529Z,26.17
2022-11-06T17:06:30.825Z,18.65
2022-11-06T17:09:26.375Z,17.58
2022-11-06T17:11:57.455Z,16.67
2022-11-06T17:14:24.837Z,15.80
2022-11-06T17:16:57.739Z,14.20
2022-11-06T17:19:25.930Z,14.20
2022-11-06T17:21:52.625Z,15.50
2022-11-06T17:24:37.073Z,18.55
2022-11-06T17:27:05.182Z,23.60
2022-11-06T17:29:34.515Z,16.25
2022-11-06T17:32:01.063Z,16.23
2022-11-06T17:34:27.584Z,15.15
2022-11-06T17:36:54.476Z,16.60
2022-11-06T17:39:22.476Z,16.58
2022-11-06T17:41:49.095Z,15.10
2022-11-06T17:44:16.894Z,13.63
2022-11-06T17:46:45.638Z,16.00
2022-11-06T17:49:17.460Z,15.05
2022-11-06T17:51:52.730Z,15.45
2022-11-06T17:54:25.340Z,14.38
2022-11-06T17:56:53.745Z,17.00
2022-11-06T17:59:20.972Z,19.35
2022-11-06T18:01:47.971Z,16.90
2022-11-06T18:04:14.721Z,17.55
2022-11-06T18:06:44.741Z,17.13
2022-11-06T18:09:11.436Z,14.70
2022-11-06T18:11:38.528Z,14.80
2022-11-06T18:14:05.070Z,15.95
2022-11-06T18:16:33.907Z,16.20
2022-11-06T18:19:01.549Z,17.13
2022-11-06T18:21:28.119Z,16.13
2022-11-06T18:23:54.750Z,16.92
2022-11-06T18:26:21.660Z,16.85
2022-11-06T18:28:49.595Z,17.90
2022-11-06T18:31:16.226Z,24.27
2022-11-06T18:33:43.130Z,22.20
2022-11-06T18:36:11.203Z,21.17
2022-11-06T18:38:38.023Z,20.67
2022-11-06T18:41:17.164Z,23.88
2022-11-06T18:43:44.442Z,38.90
2022-11-06T18:46:14.281Z,30.25
2022-11-06T18:48:41.285Z,26.92
2022-11-06T18:51:10.172Z,22.27
2022-11-06T18:53:38.687Z,22.92
2022-11-06T18:56:08.797Z,20.80
2022-11-06T18:58:35.548Z,17.35
2022-11-06T19:01:14.037Z,18.58
2022-11-06T19:03:41.575Z,19.98
2022-11-06T19:06:11.335Z,17.85
2022-11-06T19:08:38.136Z,18.15
2022-11-06T19:11:05.935Z,18.73
2022-11-06T19:13:32.928Z,19.42
2022-11-06T19:15:59.911Z,21.88
2022-11-06T19:18:30.363Z,23.23
2022-11-06T19:20:57.170Z,20.60
2022-11-06T19:23:24.371Z,31.17
2022-11-06T19:26:04.326Z,48.47
2022-11-06T19:28:37.890Z,184.70
2022-11-06T19:31:04.661Z,64.90
2022-11-06T19:33:31.253Z,32.67
2022-11-06T19:36:00.736Z,28.33
2022-11-06T19:38:28.291Z,24.00
2022-11-06T19:41:00.456Z,26.63
2022-11-06T19:43:35.721Z,27.50
2022-11-06T19:46:04.208Z,24.52
2022-11-06T19:48:32.181Z,25.50
2022-11-06T19:51:00.231Z,27.10
2022-11-06T19:53:27.715Z,26.35
2022-11-06T19:55:54.420Z,27.48
2022-11-06T19:58:23.666Z,27.25
2022-11-06T20:00:53.292Z,26.63
2022-11-06T20:03:19.938Z,27.17
2022-11-06T20:05:46.675Z,33.15
2022-11-06T20:08:13.631Z,35.65
2022-11-06T20:10:41.471Z,30.98
2022-11-06T20:13:08.655Z,31.13
2022-11-06T20:15:35.813Z,33.72
2022-11-06T20:18:02.427Z,31.50
2022-11-06T20:20:34.749Z,31.05
2022-11-06T20:23:02.860Z,34.28
2022-11-06T20:25:30.690Z,30.35
2022-11-06T20:27:57.328Z,31.25
2022-11-06T20:30:24.154Z,31.52
2022-11-06T20:32:50.907Z,27.48
2022-11-06T20:35:19.235Z,29.35
2022-11-06T20:37:45.866Z,29.77
2022-11-06T20:40:13.068Z,47.05
2022-11-06T20:42:39.814Z,43.55
2022-11-06T20:45:07.499Z,34.35
2022-11-06T20:47:34.131Z,37.50
2022-11-06T20:50:00.659Z,38.17
2022-11-06T20:52:27.271Z,37.33
2022-11-06T20:54:53.796Z,40.75
2022-11-06T20:57:20.378Z,40.42
2022-11-06T20:59:46.948Z,37.55
2022-11-06T21:02:13.797Z,41.67
2022-11-06T21:04:40.962Z,42.78
2022-11-06T21:07:10.020Z,40.70
2022-11-06T21:09:36.571Z,40.78
2022-11-06T21:12:03.436Z,37.80
2022-11-06T21:14:31.267Z,41.05
2022-11-06T21:16:58.306Z,38.05
2022-11-06T21:19:25.003Z,45.80
2022-11-06T21:21:51.739Z,74.55
2022-11-06T21:24:18.269Z,98.75
2022-11-06T21:26:44.863Z,122.32
2022-11-06T21:29:12.054Z,81.45
2022-11-06T21:31:42.705Z,58.15
2022-11-06T21:34:15.404Z,58.17
2022-11-06T21:36:41.930Z,56.22
2022-11-06T21:39:12.376Z,55.78
2022-11-06T21:41:39.374Z,53.63
2022-11-06T21:44:06.923Z,50.97
2022-11-06T21:46:34.179Z,48.78
2022-11-06T21:49:00.943Z,49.17
2022-11-06T21:51:30.281Z,48.60
2022-11-06T21:54:16.367Z,46.53
2022-11-06T21:56:44.347Z,49.72
2022-11-06T21:59:13.903Z,47.20
2022-11-06T22:01:41.034Z,43.42
2022-11-06T22:04:08.111Z,48.28
2022-11-06T22:06:34.791Z,46.25
2022-11-06T22:09:02.708Z,42.40
2022-11-06T22:11:32.535Z,40.78
2022-11-06T22:14:01.858Z,42.47
2022-11-06T22:16:32.584Z,41.97
2022-11-06T22:18:59.754Z,43.13
2022-11-06T22:21:28.516Z,44.28
2022-11-06T22:23:56.051Z,45.67
2022-11-06T22:26:24.803Z,46.17
2022-11-06T22:28:56.417Z,44.50
2022-11-06T22:31:24.111Z,49.53
2022-11-06T22:33:53.897Z,47.78
2022-11-06T22:36:21.819Z,48.25
2022-11-06T22:38:49.337Z,45.78
2022-11-06T22:41:21.395Z,45.67
2022-11-06T22:43:48.052Z,48.92
2022-11-06T22:46:18.193Z,50.35
2022-11-06T22:48:45.752Z,44.33
2022-11-06T22:51:15.368Z,46.17
2022-11-06T22:53:42.411Z,43.83
2022-11-06T22:56:09.550Z,43.80
2022-11-06T22:58:36.090Z,46.40
2022-11-06T23:01:02.684Z,43.65
2022-11-06T23:05:48.082Z,42.90
2022-11-06T23:08:15.350Z,47.70
2022-11-06T23:10:42.427Z,44.35
2022-11-06T23:13:10.220Z,44.65
2022-11-06T23:15:37.663Z,46.08
2022-11-06T23:18:04.867Z,49.20
2022-11-06T23:20:33.294Z,47.85
2022-11-06T23:23:00.769Z,51.35
2022-11-06T23:25:28.360Z,52.80
2022-11-06T23:27:55.004Z,48.65
2022-11-06T23:30:21.547Z,46.55
2022-11-06T23:32:48.100Z,49.55
2022-11-06T23:35:16.945Z,50.92
2022-11-06T23:37:43.963Z,47.50
2022-11-06T23:40:11.478Z,58.33
2022-11-06T23:42:38.331Z,118.05
2022-11-06T23:45:23.850Z,136.95
2022-11-06T23:47:50.959Z,51.75
2022-11-06T23:50:17.960Z,66.32
2022-11-06T23:52:45.210Z,45.88
2022-11-06T23:55:12.298Z,51.22
2022-11-06T23:57:38.992Z,50.30
